createdAt,value
2018-06-04T00:01:01.603Z,15.66
2018-06-04T00:03:30.962Z,15.64
2018-06-04T00:06:00.618Z,15.62
2018-06-04T00:08:29.924Z,15.61
2018-06-04T00:10:59.269Z,15.54
2018-06-04T00:13:28.903Z,15.55
2018-06-04T00:15:58.630Z,15.49
2018-06-04T00:18:28.387Z,15.45
2018-06-04T00:20:58.061Z,15.46
2018-06-04T00:23:27.865Z,15.48
2018-06-04T00:25:57.523Z,15.45
2018-06-04T00:28:27.178Z,15.41
2018-06-04T00:30:56.834Z,15.37
2018-06-04T00:33:26.137Z,15.34
2018-06-04T00:35:55.436Z,15.29
2018-06-04T00:38:25.189Z,15.29
2018-06-04T00:40:54.859Z,15.23
2018-06-04T00:43:24.180Z,15.24
2018-06-04T00:45:53.837Z,15.25
2018-06-04T00:48:23.493Z,15.29
2018-06-04T00:50:52.796Z,15.21
2018-06-04T00:53:22.597Z,15.14
2018-06-04T00:56:09.036Z,15.07
2018-06-04T00:58:38.790Z,15.09
2018-06-04T01:01:08.451Z,15.07
2018-06-04T01:03:38.945Z,15.08
2018-06-04T01:06:08.621Z,15.08
2018-06-04T01:08:38.421Z,15.05
2018-06-04T01:11:09.256Z,15.01
2018-06-04T01:13:38.981Z,14.96
2018-06-04T01:16:08.622Z,14.92
2018-06-04T01:18:38.433Z,14.89
2018-06-04T01:21:08.102Z,14.87
2018-06-04T01:23:37.734Z,14.86
2018-06-04T01:26:07.425Z,14.81
2018-06-04T01:28:37.264Z,14.80
2018-06-04T01:31:06.964Z,14.77
2018-06-04T01:33:36.658Z,14.84
2018-06-04T01:36:06.289Z,14.81
2018-06-04T01:38:35.992Z,14.83
2018-06-04T01:41:05.710Z,14.80
2018-06-04T01:43:35.353Z,14.76
2018-06-04T01:46:05.054Z,14.78
2018-06-04T01:48:34.717Z,14.77
2018-06-04T01:51:04.370Z,14.79
2018-06-04T01:53:34.170Z,14.86
2018-06-04T01:56:03.868Z,14.81
2018-06-04T01:58:33.202Z,14.82
2018-06-04T02:01:03.024Z,14.84
2018-06-04T02:03:32.732Z,14.78
2018-06-04T02:06:02.386Z,14.83
2018-06-04T02:08:32.082Z,14.75
2018-06-04T02:11:01.778Z,14.74
2018-06-04T02:13:31.435Z,14.71
2018-06-04T02:16:01.082Z,14.65
2018-06-04T02:18:30.769Z,14.67
2018-06-04T02:21:00.523Z,14.62
2018-06-04T02:23:30.149Z,14.61
2018-06-04T02:25:59.852Z,14.64
2018-06-04T02:28:29.490Z,14.66
2018-06-04T02:30:59.157Z,14.78
2018-06-04T02:33:28.988Z,14.84
2018-06-04T02:35:58.719Z,14.79
2018-06-04T02:38:28.345Z,14.74
2018-06-04T02:40:58.043Z,14.66
2018-06-04T02:43:27.665Z,14.59
2018-06-04T02:45:57.378Z,14.55
2018-06-04T02:48:27.127Z,14.53
2018-06-04T02:50:56.949Z,14.52
2018-06-04T02:53:26.413Z,14.49
2018-06-04T02:55:55.770Z,14.44
2018-06-04T02:58:25.402Z,14.43
2018-06-04T03:00:55.076Z,14.42
2018-06-04T03:03:24.710Z,14.40
2018-06-04T03:05:54.338Z,14.42
2018-06-04T03:08:24.017Z,14.40
2018-06-04T03:10:53.655Z,14.37
2018-06-04T03:13:23.404Z,14.36
2018-06-04T03:15:53.070Z,14.39
2018-06-04T03:18:22.738Z,14.38
2018-06-04T03:20:52.521Z,14.42
2018-06-04T03:23:22.163Z,14.48
2018-06-04T03:25:52.065Z,14.56
2018-06-04T03:28:21.717Z,14.47
2018-06-04T03:30:51.521Z,14.41
2018-06-04T03:33:21.210Z,14.42
2018-06-04T03:35:50.931Z,14.38
2018-06-04T03:38:20.569Z,14.35
2018-06-04T03:40:50.330Z,14.41
2018-06-04T03:43:20.032Z,14.43
2018-06-04T03:45:49.804Z,14.36
2018-06-04T03:48:19.565Z,14.36
2018-06-04T03:50:49.214Z,14.35
2018-06-04T03:53:18.884Z,14.35
2018-06-04T03:55:48.625Z,14.38
2018-06-04T03:58:18.293Z,14.42
2018-06-04T04:00:47.977Z,14.43
2018-06-04T04:03:17.617Z,14.49
2018-06-04T04:05:47.338Z,14.57
2018-06-04T04:08:17.153Z,14.68
2018-06-04T04:10:46.852Z,14.75
2018-06-04T04:13:16.530Z,14.80
2018-06-04T04:15:46.205Z,14.85
2018-06-04T04:18:16.021Z,14.87
2018-06-04T04:20:45.842Z,14.90
2018-06-04T04:23:15.478Z,14.93
2018-06-04T04:25:45.128Z,14.94
2018-06-04T04:28:14.928Z,14.99
2018-06-04T04:30:44.644Z,15.03
2018-06-04T04:33:14.330Z,15.06
2018-06-04T04:35:44.027Z,15.15
2018-06-04T04:38:13.732Z,15.22
2018-06-04T04:40:43.385Z,15.20
2018-06-04T04:43:13.122Z,15.23
2018-06-04T04:45:42.520Z,15.29
2018-06-04T04:48:12.210Z,15.42
2018-06-04T04:50:41.869Z,15.56
2018-06-04T04:53:11.533Z,15.60
2018-06-04T04:55:41.245Z,15.67
2018-06-04T04:58:10.895Z,15.78
2018-06-04T05:00:40.658Z,15.89
2018-06-04T05:03:10.323Z,15.98
2018-06-04T05:05:40.014Z,16.05
2018-06-04T05:08:09.688Z,16.11
2018-06-04T05:10:39.341Z,16.22
2018-06-04T05:13:09.022Z,16.32
2018-06-04T05:15:38.894Z,16.43
2018-06-04T05:18:08.324Z,16.52
2018-06-04T05:20:37.982Z,16.68
2018-06-04T05:23:07.618Z,16.74
2018-06-04T05:25:37.289Z,16.80
2018-06-04T05:28:06.954Z,16.83
2018-06-04T05:30:36.286Z,17.00
2018-06-04T05:33:06.099Z,17.09
2018-06-04T05:35:35.748Z,17.22
2018-06-04T05:38:05.439Z,17.36
2018-06-04T05:40:35.066Z,17.68
2018-06-04T05:43:04.754Z,17.88
2018-06-04T05:45:34.419Z,18.05
2018-06-04T05:48:04.237Z,18.16
2018-06-04T05:50:33.903Z,18.22
2018-06-04T05:53:03.583Z,18.38
2018-06-04T05:55:33.279Z,18.43
2018-06-04T05:58:02.972Z,18.59
2018-06-04T06:00:32.635Z,18.71
2018-06-04T06:03:02.314Z,18.81
2018-06-04T06:05:31.938Z,19.04
2018-06-04T06:08:01.357Z,19.02
2018-06-04T06:10:31.053Z,19.15
2018-06-04T06:13:00.386Z,19.22
2018-06-04T06:15:30.203Z,19.41
2018-06-04T06:17:59.960Z,19.59
2018-06-04T06:20:29.882Z,19.79
2018-06-04T06:22:59.613Z,19.94
2018-06-04T06:25:28.992Z,19.95
2018-06-04T06:27:58.592Z,20.09
2018-06-04T06:30:28.265Z,20.36
2018-06-04T06:32:57.923Z,20.62
2018-06-04T06:35:27.982Z,20.60
2018-06-04T06:37:57.301Z,20.81
2018-06-04T06:40:27.379Z,21.10
2018-06-04T06:42:57.047Z,21.47
2018-06-04T06:45:26.721Z,21.78
2018-06-04T06:47:56.409Z,22.03
2018-06-04T06:50:26.405Z,22.30
2018-06-04T06:52:56.133Z,22.38
2018-06-04T06:55:25.801Z,22.84
2018-06-04T06:57:55.511Z,22.26
2018-06-04T07:00:25.189Z,23.20
2018-06-04T07:02:54.866Z,24.11
2018-06-04T07:05:24.555Z,23.85
2018-06-04T07:07:54.297Z,23.87
2018-06-04T07:10:24.041Z,25.73
2018-06-04T07:12:53.740Z,25.61
2018-06-04T07:15:23.413Z,27.17
2018-06-04T07:17:53.285Z,27.55
2018-06-04T07:20:23.068Z,27.45
2018-06-04T07:22:52.899Z,28.37
2018-06-04T07:25:22.611Z,27.94
2018-06-04T07:27:52.271Z,27.90
2018-06-04T07:30:21.561Z,28.16
2018-06-04T07:32:51.200Z,28.51
2018-06-04T07:35:20.905Z,29.67
2018-06-04T07:37:50.254Z,29.67
2018-06-04T07:40:19.896Z,29.10
2018-06-04T07:42:49.640Z,30.57
2018-06-04T07:45:19.333Z,31.14
2018-06-04T07:47:49.126Z,31.38
2018-06-04T07:50:18.855Z,30.88
2018-06-04T07:52:48.526Z,30.20
2018-06-04T07:55:18.206Z,30.80
2018-06-04T07:57:47.540Z,32.59
2018-06-04T08:00:17.238Z,32.29
2018-06-04T08:02:46.917Z,32.09
2018-06-04T08:05:16.542Z,32.53
2018-06-04T08:07:45.913Z,29.35
2018-06-04T08:10:15.608Z,29.36
2018-06-04T08:12:45.274Z,31.09
2018-06-04T08:15:14.671Z,30.47
2018-06-04T08:17:43.989Z,30.53
2018-06-04T08:20:13.346Z,28.77
2018-06-04T08:22:43.045Z,29.50
2018-06-04T08:25:12.734Z,29.76
2018-06-04T08:27:42.429Z,29.74
2018-06-04T08:30:11.780Z,29.51
2018-06-04T08:32:41.444Z,31.43
2018-06-04T08:35:10.793Z,31.47
2018-06-04T08:37:40.474Z,30.94
2018-06-04T08:40:09.954Z,29.91
2018-06-04T08:42:39.611Z,32.62
2018-06-04T08:45:09.381Z,31.25
2018-06-04T08:47:39.143Z,32.14
2018-06-04T08:50:09.014Z,32.61
2018-06-04T08:52:38.688Z,34.60
2018-06-04T08:55:08.348Z,31.27
2018-06-04T08:57:38.089Z,31.79
2018-06-04T09:00:07.833Z,34.48
2018-06-04T09:02:37.550Z,32.92
2018-06-04T09:05:07.303Z,33.41
2018-06-04T09:07:37.024Z,33.96
2018-06-04T09:10:06.508Z,32.93
2018-06-04T09:12:36.193Z,32.41
2018-06-04T09:15:06.026Z,31.95
2018-06-04T09:17:35.758Z,33.60
2018-06-04T09:20:05.542Z,33.31
2018-06-04T09:22:35.217Z,31.40
2018-06-04T09:27:31.734Z,32.36
2018-06-04T09:30:01.411Z,32.63
2018-06-04T09:32:31.003Z,33.79
2018-06-04T09:35:00.674Z,34.65
2018-06-04T09:37:30.328Z,32.01
2018-06-04T09:39:59.676Z,32.17
2018-06-04T09:42:29.316Z,33.60
2018-06-04T09:44:58.966Z,34.05
2018-06-04T09:47:28.676Z,35.87
2018-06-04T09:49:57.993Z,34.49
2018-06-04T09:52:27.773Z,32.58
2018-06-04T09:54:57.097Z,33.94
2018-06-04T09:57:26.833Z,34.91
2018-06-04T09:59:56.506Z,35.07
2018-06-04T10:02:26.161Z,35.39
2018-06-04T10:04:55.891Z,35.71
2018-06-04T10:07:25.608Z,35.08
2018-06-04T10:09:55.289Z,33.99
2018-06-04T10:12:24.932Z,33.89
2018-06-04T10:14:54.570Z,35.78
2018-06-04T10:17:24.226Z,33.96
2018-06-04T10:19:53.956Z,35.04
2018-06-04T10:22:23.634Z,35.72
2018-06-04T10:24:53.351Z,34.57
2018-06-04T10:27:23.102Z,34.30
2018-06-04T10:29:52.853Z,36.52
2018-06-04T10:32:22.483Z,36.21
2018-06-04T10:34:52.177Z,35.81
2018-06-04T10:37:21.894Z,36.64
2018-06-04T10:39:51.613Z,36.05
2018-06-04T10:42:21.244Z,36.73
2018-06-04T10:44:50.965Z,34.74
2018-06-04T10:48:23.821Z,34.45
2018-06-04T10:50:53.666Z,36.56
2018-06-04T10:53:23.265Z,34.55
2018-06-04T10:55:52.970Z,33.93
2018-06-04T10:58:22.663Z,33.85
2018-06-04T11:00:52.369Z,34.06
2018-06-04T11:03:21.738Z,32.96
2018-06-04T11:05:51.406Z,30.23
2018-06-04T11:08:21.055Z,29.72
2018-06-04T11:10:50.682Z,28.65
2018-06-04T11:13:20.421Z,28.10
2018-06-04T11:15:50.073Z,28.91
2018-06-04T11:18:19.722Z,28.15
2018-06-04T11:20:49.422Z,27.89
2018-06-04T11:23:19.197Z,27.82
2018-06-04T11:25:48.845Z,28.75
2018-06-04T11:28:18.484Z,30.48
2018-06-04T11:30:48.102Z,32.46
2018-06-04T11:33:17.434Z,33.13
2018-06-04T11:35:47.102Z,33.22
2018-06-04T11:38:16.766Z,33.05
2018-06-04T11:40:46.363Z,34.17
2018-06-04T11:43:16.060Z,34.51
2018-06-04T11:45:45.472Z,32.83
2018-06-04T11:48:15.122Z,34.74
2018-06-04T11:50:44.786Z,34.30
2018-06-04T11:53:14.414Z,31.21
2018-06-04T11:55:44.089Z,30.59
2018-06-04T11:58:13.528Z,30.92
2018-06-04T12:00:43.226Z,29.92
2018-06-04T12:03:12.989Z,29.01
2018-06-04T12:05:42.889Z,30.26
2018-06-04T12:08:12.561Z,32.29
2018-06-04T12:10:42.233Z,33.33
2018-06-04T12:13:12.093Z,31.39
2018-06-04T12:15:41.800Z,31.20
2018-06-04T12:18:11.440Z,30.45
2018-06-04T12:20:41.083Z,29.70
2018-06-04T12:23:10.702Z,29.39
2018-06-04T12:25:40.337Z,29.29
2018-06-04T12:28:10.136Z,29.51
2018-06-04T12:30:39.825Z,30.78
2018-06-04T12:33:09.740Z,31.58
2018-06-04T12:35:39.381Z,33.17
2018-06-04T12:38:09.017Z,32.63
2018-06-04T12:40:38.674Z,32.92
2018-06-04T12:43:08.376Z,33.25
2018-06-04T12:45:38.121Z,32.60
2018-06-04T12:48:07.887Z,31.18
2018-06-04T12:50:37.470Z,30.68
2018-06-04T12:53:07.178Z,30.44
2018-06-04T12:55:36.940Z,30.49
2018-06-04T12:58:06.609Z,30.36
2018-06-04T13:00:36.254Z,30.39
2018-06-04T13:03:05.661Z,31.07
2018-06-04T13:05:34.965Z,32.87
2018-06-04T13:08:04.344Z,32.70
2018-06-04T13:10:33.981Z,32.07
2018-06-04T13:13:03.699Z,33.26
2018-06-04T13:15:33.042Z,34.52
2018-06-04T13:18:02.720Z,34.11
2018-06-04T13:20:32.525Z,32.99
2018-06-04T13:23:01.873Z,33.70
2018-06-04T13:25:31.504Z,33.66
2018-06-04T13:28:01.194Z,33.57
2018-06-04T13:30:30.873Z,34.07
2018-06-04T13:33:00.285Z,33.61
2018-06-04T13:35:29.609Z,34.36
2018-06-04T13:37:59.241Z,34.38
2018-06-04T13:40:28.905Z,34.13
2018-06-04T13:42:58.569Z,34.00
2018-06-04T13:45:28.313Z,35.27
2018-06-04T13:47:58.108Z,34.70
2018-06-04T13:50:27.886Z,32.91
2018-06-04T13:52:57.643Z,31.80
2018-06-04T13:55:27.549Z,31.01
2018-06-04T13:57:57.451Z,29.84
2018-06-04T14:00:27.220Z,30.43
2018-06-04T14:02:57.536Z,31.73
2018-06-04T14:05:27.460Z,30.26
2018-06-04T14:07:57.233Z,30.85
2018-06-04T14:10:26.870Z,32.52
2018-06-04T14:12:56.510Z,31.34
2018-06-04T14:15:26.174Z,30.71
2018-06-04T14:17:55.849Z,30.00
2018-06-04T14:20:25.526Z,30.55
2018-06-04T14:22:55.296Z,31.82
2018-06-04T14:25:25.018Z,32.85
2018-06-04T14:27:54.692Z,34.69
2018-06-04T14:30:24.044Z,35.14
2018-06-04T14:32:53.793Z,34.24
2018-06-04T14:35:23.469Z,34.91
2018-06-04T14:37:53.168Z,36.43
2018-06-04T14:40:22.815Z,35.59
2018-06-04T14:42:52.632Z,35.18
2018-06-04T14:45:22.285Z,36.26
2018-06-04T14:47:52.120Z,35.72
2018-06-04T14:50:21.822Z,33.11
2018-06-04T14:52:51.457Z,33.31
2018-06-04T14:55:21.137Z,34.41
2018-06-04T14:57:50.893Z,34.83
2018-06-04T15:00:20.693Z,35.42
2018-06-04T15:02:50.324Z,35.15
2018-06-04T15:05:20.029Z,35.75
2018-06-04T15:07:49.701Z,34.42
2018-06-04T15:10:19.140Z,34.79
2018-06-04T15:12:49.046Z,34.74
2018-06-04T15:15:18.822Z,35.81
2018-06-04T15:17:48.401Z,34.98
2018-06-04T15:20:18.165Z,34.34
2018-06-04T15:22:47.880Z,34.94
2018-06-04T15:25:17.256Z,34.43
2018-06-04T15:27:46.937Z,34.44
2018-06-04T15:30:16.594Z,32.66
2018-06-04T15:32:46.316Z,32.10
2018-06-04T15:35:15.635Z,32.67
2018-06-04T15:37:45.295Z,31.86
2018-06-04T15:40:15.323Z,33.11
2018-06-04T15:42:44.993Z,33.37
2018-06-04T15:45:14.625Z,33.03
2018-06-04T15:47:44.280Z,32.41
2018-06-04T15:50:14.023Z,31.03
2018-06-04T15:52:43.693Z,30.13
2018-06-04T15:55:13.437Z,28.98
2018-06-04T15:57:42.780Z,28.89
2018-06-04T16:00:12.443Z,29.66
2018-06-04T16:02:42.214Z,30.64
2018-06-04T16:05:11.836Z,31.43
2018-06-04T16:07:41.527Z,32.47
2018-06-04T16:10:11.221Z,31.30
2018-06-04T16:12:41.078Z,30.50
2018-06-04T16:15:10.866Z,30.16
2018-06-04T16:17:40.561Z,29.06
2018-06-04T16:20:10.314Z,28.67
2018-06-04T16:22:39.940Z,28.82
2018-06-04T16:25:09.796Z,28.40
2018-06-04T16:27:39.147Z,27.84
2018-06-04T16:30:08.807Z,27.37
2018-06-04T16:32:38.511Z,26.79
2018-06-04T16:35:08.380Z,26.67
2018-06-04T16:37:38.162Z,26.55
2018-06-04T16:40:07.952Z,26.57
2018-06-04T16:42:37.619Z,26.41
2018-06-04T16:45:07.382Z,26.45
2018-06-04T16:47:36.993Z,26.43
2018-06-04T16:50:06.782Z,26.47
2018-06-04T16:52:36.358Z,26.64
2018-06-04T16:55:06.182Z,26.73
2018-06-04T16:57:35.886Z,26.91
2018-06-04T17:00:05.891Z,26.83
2018-06-04T17:02:35.625Z,26.68
2018-06-04T17:05:05.603Z,26.60
2018-06-04T17:07:35.273Z,26.66
2018-06-04T17:10:05.060Z,26.65
2018-06-04T17:12:34.717Z,26.45
2018-06-04T17:15:04.476Z,26.79
2018-06-04T17:17:34.370Z,26.32
2018-06-04T17:20:04.140Z,26.50
2018-06-04T17:22:33.824Z,26.48
2018-06-04T17:25:03.509Z,26.46
2018-06-04T17:27:33.159Z,26.38
2018-06-04T17:30:02.909Z,26.32
2018-06-04T17:32:32.782Z,26.10
2018-06-04T17:35:02.491Z,25.97
2018-06-04T17:37:32.301Z,25.83
2018-06-04T17:40:01.964Z,25.55
2018-06-04T17:42:31.817Z,25.63
2018-06-04T17:45:01.479Z,25.46
2018-06-04T17:47:31.166Z,25.48
2018-06-04T17:50:00.838Z,25.54
2018-06-04T17:52:30.528Z,25.34
2018-06-04T17:55:00.295Z,25.28
2018-06-04T17:57:29.699Z,25.09
2018-06-04T17:59:59.563Z,25.21
2018-06-04T18:02:29.353Z,25.16
2018-06-04T18:05:00.070Z,24.93
2018-06-04T18:07:29.773Z,24.91
2018-06-04T18:09:59.522Z,24.87
2018-06-04T18:12:29.277Z,24.83
2018-06-04T18:14:59.029Z,24.68
2018-06-04T18:17:28.755Z,24.56
2018-06-04T18:19:58.491Z,24.60
2018-06-04T18:22:28.246Z,24.45
2018-06-04T18:24:57.899Z,24.41
2018-06-04T18:27:27.852Z,24.36
2018-06-04T18:29:57.582Z,24.27
2018-06-04T18:32:27.302Z,24.19
2018-06-04T18:34:57.085Z,24.14
2018-06-04T18:37:26.765Z,24.06
2018-06-04T18:39:56.089Z,24.09
2018-06-04T18:42:25.852Z,24.00
2018-06-04T18:44:55.657Z,23.84
2018-06-04T18:47:25.443Z,23.65
2018-06-04T18:49:55.246Z,23.55
2018-06-04T18:52:24.902Z,23.56
2018-06-04T18:54:54.667Z,23.56
2018-06-04T18:57:24.349Z,23.37
2018-06-04T18:59:54.068Z,23.28
2018-06-04T19:02:31.612Z,23.21
2018-06-04T19:05:01.507Z,23.21
2018-06-04T19:07:31.271Z,23.20
2018-06-04T19:10:01.066Z,23.11
2018-06-04T19:12:30.768Z,23.25
2018-06-04T19:15:00.512Z,23.14
2018-06-04T19:17:30.294Z,23.03
2018-06-04T19:20:00.081Z,22.99
2018-06-04T19:22:29.792Z,22.96
2018-06-04T19:24:59.150Z,22.78
2018-06-04T19:27:28.961Z,22.65
2018-06-04T19:29:58.653Z,22.55
2018-06-04T19:32:28.344Z,22.53
2018-06-04T19:34:58.054Z,22.52
2018-06-04T19:37:27.525Z,22.50
2018-06-04T19:39:57.347Z,22.38
2018-06-04T19:42:27.064Z,22.40
2018-06-04T19:44:56.758Z,22.22
2018-06-04T19:47:26.445Z,22.31
2018-06-04T19:49:56.253Z,22.29
2018-06-04T19:52:26.010Z,22.22
2018-06-04T19:54:55.842Z,22.14
2018-06-04T19:57:25.746Z,22.09
2018-06-04T20:02:27.907Z,21.89
2018-06-04T20:04:57.963Z,21.85
2018-06-04T20:07:27.733Z,21.84
2018-06-04T20:09:57.447Z,21.98
2018-06-04T20:12:27.237Z,21.84
2018-06-04T20:14:58.290Z,21.71
2018-06-04T20:17:31.134Z,21.50
2018-06-04T20:20:00.874Z,21.50
2018-06-04T20:22:30.753Z,21.39
2018-06-04T20:25:00.461Z,21.23
2018-06-04T20:27:30.170Z,21.12
2018-06-04T20:29:59.930Z,21.05
2018-06-04T20:32:29.266Z,20.98
2018-06-04T20:34:59.018Z,21.10
2018-06-04T20:37:28.781Z,20.98
2018-06-04T20:39:58.437Z,20.85
2018-06-04T20:42:28.292Z,20.78
2018-06-04T20:44:57.633Z,20.71
2018-06-04T20:47:27.404Z,20.68
2018-06-04T20:49:56.692Z,20.55
2018-06-04T20:52:26.406Z,20.41
2018-06-04T20:54:57.147Z,20.46
2018-06-04T20:57:26.871Z,20.37
2018-06-04T20:59:56.601Z,20.28
2018-06-04T21:02:26.318Z,20.18
2018-06-04T21:04:55.703Z,20.15
2018-06-04T21:07:25.468Z,20.05
2018-06-04T21:09:55.170Z,20.01
2018-06-04T21:12:24.888Z,20.02
2018-06-04T21:14:54.610Z,19.88
2018-06-04T21:17:24.325Z,19.79
2018-06-04T21:19:55.095Z,19.59
2018-06-04T21:22:24.892Z,19.50
2018-06-04T21:24:54.599Z,19.31
2018-06-04T21:27:24.313Z,19.36
2018-06-04T21:29:54.082Z,19.33
2018-06-04T21:32:23.786Z,19.26
2018-06-04T21:34:53.485Z,19.13
2018-06-04T21:37:23.148Z,19.09
2018-06-04T21:39:52.956Z,18.96
2018-06-04T21:42:22.753Z,18.89
2018-06-04T21:44:52.052Z,18.79
2018-06-04T21:47:21.380Z,18.75
2018-06-04T21:49:51.046Z,18.76
2018-06-04T21:52:20.708Z,18.69
2018-06-04T21:54:50.394Z,18.66
2018-06-04T21:57:19.749Z,18.57
2018-06-04T21:59:49.405Z,18.57
2018-06-04T22:02:19.021Z,18.51
2018-06-04T22:04:48.347Z,18.40
2018-06-04T22:07:18.007Z,18.24
2018-06-04T22:09:47.864Z,18.20
2018-06-04T22:12:17.839Z,18.20
2018-06-04T22:14:47.741Z,18.14
2018-06-04T22:17:17.517Z,18.04
2018-06-04T22:19:47.004Z,18.00
2018-06-04T22:22:16.710Z,17.97
2018-06-04T22:24:46.488Z,18.17
2018-06-04T22:27:16.376Z,18.15
2018-06-04T22:29:46.069Z,18.16
2018-06-04T22:32:15.485Z,18.07
2018-06-04T22:34:45.437Z,17.96
2018-06-04T22:37:15.281Z,17.97
2018-06-04T22:39:45.049Z,17.96
2018-06-04T22:42:14.799Z,17.84
2018-06-04T22:44:44.436Z,17.85
2018-06-04T22:47:14.144Z,17.73
2018-06-04T22:49:43.827Z,17.67
2018-06-04T22:52:13.471Z,17.63
2018-06-04T22:54:43.243Z,17.59
2018-06-04T22:57:12.913Z,17.65
2018-06-04T22:59:42.696Z,17.59
2018-06-04T23:02:12.357Z,17.53
2018-06-04T23:04:41.675Z,17.50
2018-06-04T23:07:11.366Z,17.74
2018-06-04T23:09:41.042Z,17.96
2018-06-04T23:12:10.685Z,17.76
2018-06-04T23:14:40.336Z,17.77
2018-06-04T23:17:09.973Z,17.67
2018-06-04T23:19:39.653Z,17.55
2018-06-04T23:22:09.267Z,17.55
2018-06-04T23:24:38.956Z,17.36
2018-06-04T23:27:08.643Z,17.33
2018-06-04T23:29:38.380Z,17.18
2018-06-04T23:32:08.042Z,17.06
2018-06-04T23:34:37.756Z,17.04
2018-06-04T23:37:07.677Z,16.97
2018-06-04T23:39:37.017Z,16.86
2018-06-04T23:42:06.688Z,16.77
2018-06-04T23:44:36.331Z,16.89
2018-06-04T23:47:05.754Z,16.92
2018-06-04T23:49:35.372Z,16.79
2018-06-04T23:52:05.173Z,16.70
2018-06-04T23:54:34.928Z,16.64
2018-06-04T23:57:04.565Z,16.63
2018-06-04T23:59:34.199Z,16.59
